createdAt,value
2023-03-16T00:01:31.339Z,71.18
2023-03-16T00:03:59.175Z,71.46
2023-03-16T00:06:26.916Z,71.39
2023-03-16T00:08:58.866Z,71.58
2023-03-16T00:11:27.771Z,71.23
2023-03-16T00:13:55.566Z,71.65
2023-03-16T00:16:25.344Z,71.95
2023-03-16T00:18:53.157Z,71.86
2023-03-16T00:21:21.167Z,72.06
2023-03-16T00:23:48.904Z,72.29
2023-03-16T00:26:16.696Z,72.30
2023-03-16T00:28:44.467Z,72.43
2023-03-16T00:31:14.780Z,72.89
2023-03-16T00:33:44.115Z,72.83
2023-03-16T00:36:12.835Z,73.20
2023-03-16T00:38:45.063Z,73.31
2023-03-16T00:41:15.044Z,73.79
2023-03-16T00:43:45.402Z,73.98
2023-03-16T00:46:15.446Z,74.08
2023-03-16T00:48:48.023Z,74.21
2023-03-16T00:51:17.918Z,74.25
2023-03-16T00:53:46.893Z,74.53
2023-03-16T00:56:15.436Z,74.74
2023-03-16T00:58:44.282Z,75.05
2023-03-16T01:01:14.828Z,75.39
2023-03-16T01:03:42.805Z,75.33
2023-03-16T01:06:14.907Z,75.46
2023-03-16T01:08:43.002Z,75.68
2023-03-16T01:11:13.096Z,75.34
2023-03-16T01:13:41.058Z,75.57
2023-03-16T01:16:11.013Z,75.87
2023-03-16T01:18:38.808Z,76.14
2023-03-16T01:21:09.265Z,76.20
2023-03-16T01:23:38.545Z,76.55
2023-03-16T01:26:08.348Z,76.34
2023-03-16T01:28:36.439Z,76.52
2023-03-16T01:31:06.981Z,76.99
2023-03-16T01:33:35.977Z,76.94
2023-03-16T01:36:07.756Z,76.96
2023-03-16T01:38:45.930Z,77.17
2023-03-16T01:41:14.266Z,77.43
2023-03-16T01:43:43.534Z,77.61
2023-03-16T01:46:22.145Z,77.84
2023-03-16T01:48:57.523Z,78.02
2023-03-16T01:51:32.703Z,77.97
2023-03-16T01:54:06.413Z,78.27
2023-03-16T01:56:38.882Z,78.27
2023-03-16T01:59:10.984Z,78.75
2023-03-16T02:01:39.677Z,78.46
2023-03-16T02:04:18.073Z,78.65
2023-03-16T02:06:48.550Z,78.66
2023-03-16T02:09:19.994Z,78.96
2023-03-16T02:11:48.680Z,79.04
2023-03-16T02:14:16.463Z,79.26
2023-03-16T02:16:45.061Z,79.40
2023-03-16T02:19:21.058Z,79.48
2023-03-16T02:21:56.929Z,79.60
2023-03-16T02:24:26.228Z,79.58
2023-03-16T02:26:57.987Z,79.49
2023-03-16T02:29:56.348Z,79.63
2023-03-16T02:32:27.985Z,79.64
2023-03-16T02:34:57.133Z,79.84
2023-03-16T02:37:25.148Z,79.89
2023-03-16T02:39:53.697Z,80.07
2023-03-16T02:42:26.605Z,80.08
2023-03-16T02:45:01.143Z,80.34
2023-03-16T02:47:37.972Z,80.39
2023-03-16T02:50:06.785Z,80.43
2023-03-16T02:52:35.112Z,80.30
2023-03-16T02:55:03.445Z,80.82
2023-03-16T02:57:31.672Z,81.10
2023-03-16T03:00:11.559Z,81.21
2023-03-16T03:02:40.192Z,81.61
2023-03-16T03:05:08.664Z,81.64
2023-03-16T03:07:37.191Z,81.78
2023-03-16T03:10:07.665Z,82.20
2023-03-16T03:12:36.013Z,82.37
2023-03-16T03:15:09.793Z,82.41
2023-03-16T03:17:46.952Z,82.38
2023-03-16T03:20:16.869Z,82.56
2023-03-16T03:22:46.137Z,82.83
2023-03-16T03:25:15.937Z,82.87
2023-03-16T03:27:44.808Z,83.10
2023-03-16T03:30:19.591Z,83.10
2023-03-16T03:32:49.063Z,83.30
2023-03-16T03:35:19.449Z,83.65
2023-03-16T03:37:47.348Z,83.61
2023-03-16T03:40:18.966Z,83.81
2023-03-16T03:42:49.315Z,84.34
2023-03-16T03:45:18.659Z,84.84
2023-03-16T03:47:46.506Z,84.91
2023-03-16T03:50:19.939Z,85.23
2023-03-16T03:52:55.040Z,85.39
2023-03-16T03:55:23.043Z,85.68
2023-03-16T03:57:50.964Z,86.58
2023-03-16T04:00:21.960Z,86.41
2023-03-16T04:02:50.500Z,87.06
2023-03-16T04:05:44.309Z,87.66
2023-03-16T04:08:13.259Z,88.14
2023-03-16T04:10:41.369Z,88.32
2023-03-16T04:13:09.332Z,88.12
2023-03-16T04:15:39.106Z,88.54
2023-03-16T04:18:28.191Z,88.95
2023-03-16T04:20:56.438Z,89.18
2023-03-16T04:23:26.011Z,89.21
2023-03-16T04:25:54.827Z,89.35
2023-03-16T04:28:26.342Z,89.42
2023-03-16T04:30:56.135Z,89.43
2023-03-16T04:33:30.264Z,89.46
2023-03-16T04:35:58.295Z,89.71
2023-03-16T04:38:26.850Z,89.97
2023-03-16T04:40:57.199Z,90.36
2023-03-16T04:43:29.240Z,90.03
2023-03-16T04:46:06.155Z,90.39
2023-03-16T04:48:35.172Z,90.41
2023-03-16T04:51:05.891Z,90.52
2023-03-16T04:53:37.277Z,90.47
2023-03-16T04:56:18.318Z,90.26
2023-03-16T04:58:50.210Z,90.18
2023-03-16T05:01:20.876Z,89.97
2023-03-16T05:03:50.813Z,90.13
2023-03-16T05:06:18.978Z,89.90
2023-03-16T05:08:46.837Z,89.43
2023-03-16T05:11:14.751Z,89.20
2023-03-16T05:13:52.328Z,89.12
2023-03-16T05:16:21.908Z,88.93
2023-03-16T05:18:50.061Z,88.94
2023-03-16T05:21:17.932Z,89.09
2023-03-16T05:23:54.626Z,89.23
2023-03-16T05:26:22.647Z,89.42
2023-03-16T05:28:51.889Z,89.24
2023-03-16T05:31:26.553Z,89.65
2023-03-16T05:33:58.284Z,89.63
2023-03-16T05:36:26.327Z,89.80
2023-03-16T05:38:59.372Z,89.86
2023-03-16T05:41:37.801Z,90.04
2023-03-16T05:44:13.570Z,89.96
2023-03-16T05:47:01.406Z,90.13
2023-03-16T05:49:31.312Z,90.56
2023-03-16T05:52:01.082Z,90.74
2023-03-16T05:54:30.059Z,90.98
2023-03-16T05:56:57.939Z,90.94
2023-03-16T05:59:26.120Z,91.53
2023-03-16T06:01:57.246Z,91.69
2023-03-16T06:04:26.974Z,91.54
2023-03-16T06:06:54.842Z,91.63
2023-03-16T06:09:26.584Z,92.00
2023-03-16T06:11:54.581Z,91.85
2023-03-16T06:14:23.193Z,91.90
2023-03-16T06:16:52.179Z,92.16
2023-03-16T06:19:20.515Z,92.34
2023-03-16T06:21:54.399Z,92.12
2023-03-16T06:24:22.604Z,92.30
2023-03-16T06:26:52.116Z,92.01
2023-03-16T06:29:21.382Z,92.00
2023-03-16T06:31:51.388Z,92.32
2023-03-16T06:34:19.792Z,92.14
2023-03-16T06:36:47.640Z,92.24
2023-03-16T06:39:17.287Z,92.17
2023-03-16T06:41:50.274Z,92.46
2023-03-16T06:44:18.861Z,92.21
2023-03-16T06:47:02.802Z,92.27
2023-03-16T06:49:31.289Z,92.64
2023-03-16T06:52:00.765Z,93.09
2023-03-16T06:54:32.346Z,93.40
2023-03-16T06:57:00.182Z,93.47
2023-03-16T06:59:28.798Z,93.68
2023-03-16T07:01:58.312Z,93.65
2023-03-16T07:04:26.288Z,93.91
2023-03-16T07:06:54.528Z,93.58
2023-03-16T07:09:22.406Z,93.53
2023-03-16T07:11:52.649Z,93.15
2023-03-16T07:14:22.798Z,92.82
2023-03-16T07:16:52.803Z,92.75
2023-03-16T07:19:22.513Z,92.25
2023-03-16T07:21:51.604Z,92.08
2023-03-16T07:24:22.519Z,91.73
2023-03-16T07:26:53.106Z,90.77
2023-03-16T07:29:27.336Z,90.96
2023-03-16T07:31:55.590Z,90.98
2023-03-16T07:34:29.168Z,91.05
2023-03-16T07:36:59.018Z,91.26
2023-03-16T07:39:30.135Z,91.54
2023-03-16T07:42:06.350Z,91.91
2023-03-16T07:44:46.492Z,91.35
2023-03-16T07:47:14.531Z,91.71
2023-03-16T07:49:44.194Z,92.12
2023-03-16T07:52:13.600Z,91.95
2023-03-16T07:54:42.403Z,92.06
2023-03-16T07:57:13.199Z,92.07
2023-03-16T07:59:43.655Z,92.30
2023-03-16T08:02:15.999Z,92.06
2023-03-16T08:04:44.584Z,92.35
2023-03-16T08:07:15.753Z,92.01
2023-03-16T08:09:54.069Z,92.32
2023-03-16T08:12:29.746Z,92.53
2023-03-16T08:14:57.713Z,92.83
2023-03-16T08:17:31.392Z,92.63
2023-03-16T08:20:01.203Z,92.07
2023-03-16T08:22:29.997Z,91.76
2023-03-16T08:24:58.162Z,91.78
2023-03-16T08:27:26.325Z,91.98
2023-03-16T08:30:04.648Z,91.83
2023-03-16T08:32:33.336Z,90.27
2023-03-16T08:35:01.527Z,90.01
2023-03-16T08:37:29.666Z,89.21
2023-03-16T08:40:00.387Z,89.27
2023-03-16T08:42:29.990Z,88.89
2023-03-16T08:45:12.229Z,88.92
2023-03-16T08:47:42.630Z,88.49
2023-03-16T08:50:13.434Z,88.18
2023-03-16T08:52:42.848Z,88.25
2023-03-16T08:55:13.326Z,87.88
2023-03-16T08:57:41.205Z,87.14
2023-03-16T09:00:13.597Z,87.24
2023-03-16T09:02:42.121Z,86.75
2023-03-16T09:05:11.050Z,86.52
2023-03-16T09:07:39.353Z,86.07
2023-03-16T09:10:07.785Z,85.41
2023-03-16T09:12:37.970Z,85.04
2023-03-16T09:15:06.921Z,84.54
2023-03-16T09:17:36.275Z,84.76
2023-03-16T09:20:21.172Z,84.12
2023-03-16T09:22:50.034Z,84.03
2023-03-16T09:25:17.906Z,83.15
2023-03-16T09:27:45.681Z,83.51
2023-03-16T09:30:16.653Z,83.71
2023-03-16T09:32:48.635Z,83.27
2023-03-16T09:35:16.669Z,83.29
2023-03-16T09:38:01.066Z,83.44
2023-03-16T09:40:33.409Z,83.17
2023-03-16T09:43:30.378Z,83.25
2023-03-16T09:46:07.999Z,83.19
2023-03-16T09:48:39.708Z,82.27
2023-03-16T09:51:13.615Z,82.41
2023-03-16T09:53:41.966Z,83.02
2023-03-16T09:56:13.482Z,82.34
2023-03-16T09:58:41.754Z,81.70
2023-03-16T10:01:19.102Z,81.74
2023-03-16T10:04:01.802Z,81.43
2023-03-16T10:06:31.205Z,80.12
2023-03-16T10:09:08.447Z,78.83
2023-03-16T10:11:38.993Z,78.07
2023-03-16T10:14:17.650Z,78.66
2023-03-16T10:16:50.495Z,74.93
2023-03-16T10:19:27.129Z,75.28
2023-03-16T10:21:58.935Z,74.76
2023-03-16T10:24:44.731Z,73.15
2023-03-16T10:27:21.451Z,72.52
2023-03-16T10:29:49.713Z,71.52
2023-03-16T10:32:19.609Z,71.23
2023-03-16T10:34:56.002Z,69.07
2023-03-16T10:37:25.515Z,69.19
2023-03-16T10:39:53.460Z,67.29
2023-03-16T10:42:22.362Z,66.87
2023-03-16T10:44:50.633Z,68.01
2023-03-16T10:47:21.164Z,66.74
2023-03-16T10:49:51.391Z,67.00
2023-03-16T10:52:21.651Z,66.73
2023-03-16T10:54:52.676Z,67.02
2023-03-16T10:57:25.405Z,65.92
2023-03-16T10:59:56.747Z,66.35
2023-03-16T11:02:31.807Z,66.08
2023-03-16T11:05:01.639Z,65.73
2023-03-16T11:07:29.452Z,66.31
2023-03-16T11:09:58.684Z,63.97
2023-03-16T11:12:30.175Z,65.85
2023-03-16T11:15:04.731Z,65.08
2023-03-16T11:17:39.788Z,64.06
2023-03-16T11:20:17.604Z,63.87
2023-03-16T11:22:47.230Z,64.36
2023-03-16T11:25:20.376Z,64.06
2023-03-16T11:27:52.967Z,64.13
2023-03-16T11:30:27.125Z,64.06
2023-03-16T11:32:55.018Z,64.18
2023-03-16T11:35:35.040Z,64.18
2023-03-16T11:38:12.795Z,64.17
2023-03-16T11:40:50.165Z,64.99
2023-03-16T11:43:41.756Z,65.31
2023-03-16T11:46:16.793Z,63.91
2023-03-16T11:48:48.048Z,63.36
2023-03-16T11:51:24.779Z,64.06
2023-03-16T11:54:03.180Z,62.58
2023-03-16T11:56:35.859Z,63.32
2023-03-16T11:59:28.005Z,62.33
2023-03-16T12:02:06.127Z,63.11
2023-03-16T12:04:50.910Z,61.95
2023-03-16T12:07:31.607Z,62.21
2023-03-16T12:10:07.990Z,61.73
2023-03-16T12:12:50.345Z,60.65
2023-03-16T12:15:30.949Z,61.61
2023-03-16T12:18:06.248Z,60.33
2023-03-16T12:20:39.392Z,59.84
2023-03-16T12:23:14.838Z,59.74
2023-03-16T12:25:47.470Z,58.98
2023-03-16T12:28:22.168Z,59.97
2023-03-16T12:30:59.077Z,58.13
2023-03-16T12:33:40.739Z,56.40
2023-03-16T12:36:32.971Z,56.78
2023-03-16T12:39:06.415Z,57.04
2023-03-16T12:41:46.157Z,52.93
2023-03-16T12:44:19.058Z,51.19
2023-03-16T12:46:57.778Z,53.14
2023-03-16T12:49:28.403Z,52.91
2023-03-16T12:52:01.462Z,53.53
2023-03-16T12:54:31.218Z,52.37
2023-03-16T12:57:04.624Z,51.87
2023-03-16T12:59:42.801Z,54.29
2023-03-16T13:02:15.706Z,52.33
2023-03-16T13:04:46.425Z,52.50
2023-03-16T13:07:20.309Z,51.94
2023-03-16T13:09:55.054Z,52.60
2023-03-16T13:12:25.899Z,50.21
2023-03-16T13:14:55.011Z,49.87
2023-03-16T13:17:31.814Z,48.75
2023-03-16T13:20:04.071Z,49.86
2023-03-16T13:22:42.994Z,49.53
2023-03-16T13:25:22.146Z,48.54
2023-03-16T13:27:53.652Z,48.57
2023-03-16T13:30:24.432Z,48.32
2023-03-16T13:32:55.249Z,48.84
2023-03-16T13:35:28.188Z,48.01
2023-03-16T13:38:05.634Z,47.76
2023-03-16T13:40:37.983Z,46.32
2023-03-16T13:43:06.735Z,46.34
2023-03-16T13:45:38.741Z,46.53
2023-03-16T13:48:06.770Z,46.46
2023-03-16T13:50:36.068Z,46.98
2023-03-16T13:53:06.508Z,46.13
2023-03-16T13:55:38.581Z,46.39
2023-03-16T13:58:06.944Z,46.39
2023-03-16T14:00:36.986Z,46.75
2023-03-16T14:03:16.189Z,45.38
2023-03-16T14:05:44.279Z,45.59
2023-03-16T14:08:20.730Z,44.90
2023-03-16T14:10:51.055Z,44.51
2023-03-16T14:13:32.982Z,44.36
2023-03-16T14:16:03.379Z,45.51
2023-03-16T14:18:36.056Z,44.78
2023-03-16T14:21:09.171Z,44.76
2023-03-16T14:23:40.698Z,44.54
2023-03-16T14:26:15.079Z,44.24
2023-03-16T14:28:54.504Z,43.77
2023-03-16T14:31:22.710Z,43.88
2023-03-16T14:34:01.857Z,43.33
2023-03-16T14:36:36.803Z,43.94
2023-03-16T14:39:16.802Z,42.13
2023-03-16T14:41:50.313Z,43.55
2023-03-16T14:44:22.458Z,43.39
2023-03-16T14:46:51.143Z,43.78
2023-03-16T14:49:22.727Z,42.69
2023-03-16T14:51:53.760Z,42.95
2023-03-16T14:54:23.278Z,42.99
2023-03-16T14:56:54.213Z,41.69
2023-03-16T14:59:22.013Z,43.11
2023-03-16T15:01:51.181Z,42.59
2023-03-16T15:04:25.869Z,42.58
2023-03-16T15:06:54.097Z,43.84
2023-03-16T15:09:34.604Z,42.70
2023-03-16T15:12:04.077Z,43.35
2023-03-16T15:14:49.228Z,44.11
2023-03-16T15:17:17.006Z,44.00
2023-03-16T15:19:44.794Z,44.29
2023-03-16T15:22:14.512Z,43.19
2023-03-16T15:24:42.540Z,43.34
2023-03-16T15:27:21.101Z,43.74
2023-03-16T15:29:48.988Z,44.32
2023-03-16T15:32:17.260Z,44.57
2023-03-16T15:34:46.451Z,44.34
2023-03-16T15:37:17.240Z,44.42
2023-03-16T15:39:46.180Z,44.25
2023-03-16T15:42:18.219Z,43.04
2023-03-16T15:44:47.069Z,44.27
2023-03-16T15:47:15.407Z,43.64
2023-03-16T15:49:47.833Z,44.21
2023-03-16T15:52:27.575Z,44.39
2023-03-16T15:54:57.362Z,44.61
2023-03-16T15:57:26.951Z,44.13
2023-03-16T15:59:54.771Z,43.79
2023-03-16T16:02:28.561Z,43.62
2023-03-16T16:04:57.078Z,44.15
2023-03-16T16:07:25.161Z,45.37
2023-03-16T16:09:53.053Z,45.25
2023-03-16T16:12:26.669Z,44.39
2023-03-16T16:14:56.968Z,45.49
2023-03-16T16:17:43.976Z,44.10
2023-03-16T16:20:21.476Z,44.47
2023-03-16T16:22:50.364Z,43.19
2023-03-16T16:25:18.565Z,43.78
2023-03-16T16:27:47.046Z,43.23
2023-03-16T16:30:23.623Z,44.20
2023-03-16T16:32:52.132Z,44.83
2023-03-16T16:35:22.064Z,44.71
2023-03-16T16:37:50.407Z,44.82
2023-03-16T16:40:19.555Z,44.39
2023-03-16T16:42:48.541Z,45.18
2023-03-16T16:45:22.768Z,44.68
2023-03-16T16:47:53.623Z,45.35
2023-03-16T16:50:25.057Z,45.92
2023-03-16T16:52:54.069Z,45.98
2023-03-16T16:55:22.895Z,45.64
2023-03-16T16:57:53.801Z,46.57
2023-03-16T17:00:24.614Z,47.17
2023-03-16T17:02:53.785Z,47.60
2023-03-16T17:05:23.152Z,48.21
2023-03-16T17:07:51.468Z,48.67
2023-03-16T17:10:21.324Z,49.89
2023-03-16T17:12:50.487Z,50.27
2023-03-16T17:15:26.169Z,51.12
2023-03-16T17:17:59.452Z,51.48
2023-03-16T17:20:27.366Z,52.37
2023-03-16T17:22:55.764Z,52.45
2023-03-16T17:25:23.640Z,53.07
2023-03-16T17:27:54.320Z,52.98
2023-03-16T17:30:28.794Z,53.08
2023-03-16T17:33:00.085Z,52.86
2023-03-16T17:35:28.469Z,53.17
2023-03-16T17:37:56.818Z,53.41
2023-03-16T17:40:26.270Z,53.40
2023-03-16T17:42:56.397Z,53.04
2023-03-16T17:45:28.827Z,53.14
2023-03-16T17:47:57.036Z,53.55
2023-03-16T17:50:29.297Z,53.59
2023-03-16T17:52:57.346Z,54.08
2023-03-16T17:55:25.859Z,53.83
2023-03-16T17:57:55.886Z,54.07
2023-03-16T18:00:32.410Z,54.26
2023-03-16T18:03:02.638Z,54.66
2023-03-16T18:05:32.205Z,55.28
2023-03-16T18:08:04.857Z,55.56
2023-03-16T18:10:33.984Z,55.87
2023-03-16T18:13:04.418Z,56.41
2023-03-16T18:15:36.430Z,56.71
2023-03-16T18:18:07.205Z,57.17
2023-03-16T18:20:36.689Z,57.28
2023-03-16T18:23:16.154Z,57.98
2023-03-16T18:25:44.838Z,58.00
2023-03-16T18:28:13.836Z,58.38
2023-03-16T18:30:45.207Z,58.81
2023-03-16T18:33:25.892Z,58.76
2023-03-16T18:35:55.482Z,59.05
2023-03-16T18:38:30.527Z,59.34
2023-03-16T18:40:59.700Z,59.66
2023-03-16T18:43:27.846Z,59.95
2023-03-16T18:45:57.258Z,60.24
2023-03-16T18:48:30.418Z,60.69
2023-03-16T18:50:58.480Z,61.38
2023-03-16T18:53:28.120Z,61.89
2023-03-16T18:55:57.497Z,62.56
2023-03-16T18:58:25.800Z,62.89
2023-03-16T19:00:56.901Z,63.02
2023-03-16T19:03:29.009Z,63.24
2023-03-16T19:05:58.377Z,63.01
2023-03-16T19:08:27.771Z,63.75
2023-03-16T19:10:57.796Z,63.72
2023-03-16T19:13:26.256Z,64.24
2023-03-16T19:15:56.230Z,64.72
2023-03-16T19:18:26.091Z,64.65
2023-03-16T19:20:57.153Z,65.16
2023-03-16T19:23:28.529Z,65.67
2023-03-16T19:25:57.910Z,65.87
2023-03-16T19:28:33.617Z,65.92
2023-03-16T19:31:02.355Z,65.90
2023-03-16T19:33:30.653Z,65.70
2023-03-16T19:36:00.148Z,66.25
2023-03-16T19:38:28.344Z,66.28
2023-03-16T19:40:58.833Z,66.58
2023-03-16T19:43:28.056Z,66.45
2023-03-16T19:45:56.710Z,66.48
2023-03-16T19:48:32.142Z,66.63
2023-03-16T19:51:01.409Z,66.87
2023-03-16T19:53:29.280Z,66.73
2023-03-16T19:55:57.028Z,66.51
2023-03-16T19:58:31.370Z,66.98
2023-03-16T20:01:01.045Z,66.61
2023-03-16T20:03:28.926Z,67.12
2023-03-16T20:05:56.700Z,66.98
2023-03-16T20:08:27.439Z,67.80
2023-03-16T20:11:00.921Z,67.64
2023-03-16T20:13:30.676Z,68.08
2023-03-16T20:15:58.510Z,68.04
2023-03-16T20:18:26.355Z,67.84
2023-03-16T20:20:54.144Z,67.80
2023-03-16T20:23:25.864Z,67.90
2023-03-16T20:25:55.776Z,68.21
2023-03-16T20:28:25.734Z,68.26
2023-03-16T20:30:53.959Z,68.55
2023-03-16T20:33:24.222Z,68.74
2023-03-16T20:35:53.628Z,68.68
2023-03-16T20:38:21.944Z,68.74
2023-03-16T20:40:53.242Z,68.32
2023-03-16T20:43:25.302Z,68.65
2023-03-16T20:45:55.461Z,68.70
2023-03-16T20:48:25.388Z,68.50
2023-03-16T20:50:53.635Z,68.51
2023-03-16T20:53:21.697Z,68.22
2023-03-16T20:55:51.315Z,67.83
2023-03-16T20:58:21.904Z,67.94
2023-03-16T21:00:51.250Z,67.99
2023-03-16T21:03:20.863Z,67.88
2023-03-16T21:05:48.994Z,68.06
2023-03-16T21:08:16.837Z,67.85
2023-03-16T21:10:46.494Z,67.95
2023-03-16T21:13:20.003Z,68.33
2023-03-16T21:15:49.926Z,68.34
2023-03-16T21:18:20.208Z,68.18
2023-03-16T21:20:51.610Z,67.99
2023-03-16T21:23:21.588Z,68.49
2023-03-16T21:25:51.764Z,68.52
2023-03-16T21:28:21.815Z,68.73
2023-03-16T21:30:52.759Z,68.83
2023-03-16T21:33:29.841Z,69.01
2023-03-16T21:35:58.512Z,69.25
2023-03-16T21:38:29.177Z,69.48
2023-03-16T21:40:57.472Z,69.46
2023-03-16T21:43:26.777Z,69.66
2023-03-16T21:45:56.705Z,69.74
2023-03-16T21:48:26.676Z,69.78
2023-03-16T21:50:54.862Z,69.80
2023-03-16T21:53:24.925Z,69.66
2023-03-16T21:55:54.574Z,69.60
2023-03-16T21:58:23.257Z,70.00
2023-03-16T22:00:54.031Z,69.62
2023-03-16T22:03:32.981Z,69.78
2023-03-16T22:06:06.900Z,69.45
2023-03-16T22:08:35.718Z,69.82
2023-03-16T22:11:03.914Z,69.76
2023-03-16T22:13:33.417Z,69.82
2023-03-16T22:16:03.512Z,69.75
2023-03-16T22:18:34.562Z,69.96
2023-03-16T22:21:05.043Z,69.95
2023-03-16T22:23:35.287Z,69.88
2023-03-16T22:26:04.225Z,70.36
2023-03-16T22:28:33.875Z,70.15
2023-03-16T22:31:05.151Z,70.29
2023-03-16T22:33:34.712Z,70.45
2023-03-16T22:36:06.328Z,70.70
2023-03-16T22:38:34.215Z,70.75
2023-03-16T22:41:02.223Z,70.62
2023-03-16T22:43:33.105Z,70.95
2023-03-16T22:46:00.986Z,70.66
2023-03-16T22:48:31.891Z,70.87
2023-03-16T22:51:03.812Z,70.76
2023-03-16T22:53:38.896Z,70.72
2023-03-16T22:56:08.008Z,71.15
2023-03-16T22:58:38.406Z,70.95
2023-03-16T23:01:17.699Z,70.97
2023-03-16T23:03:49.551Z,71.06
2023-03-16T23:06:19.042Z,71.36
2023-03-16T23:08:47.654Z,71.27
2023-03-16T23:11:23.906Z,71.29
2023-03-16T23:13:53.425Z,71.08
2023-03-16T23:16:24.719Z,71.44
2023-03-16T23:18:54.352Z,71.20
2023-03-16T23:21:24.688Z,71.36
2023-03-16T23:24:03.637Z,71.25
2023-03-16T23:26:32.906Z,71.33
2023-03-16T23:29:00.742Z,71.13
2023-03-16T23:31:28.860Z,71.80
2023-03-16T23:33:58.132Z,71.53
2023-03-16T23:36:27.330Z,71.53
2023-03-16T23:38:55.236Z,71.79
2023-03-16T23:41:25.298Z,71.51
2023-03-16T23:43:54.068Z,71.39
2023-03-16T23:46:24.612Z,71.41
2023-03-16T23:48:54.404Z,71.68
2023-03-16T23:51:27.108Z,71.59
2023-03-16T23:53:55.702Z,71.63
2023-03-16T23:56:24.185Z,71.47
2023-03-16T23:58:52.022Z,71.69
